Portada
METAR-TAF:

METAR-TAF

Aeroports :

Derby, Austràlia

latitud: 17-34-53S, longitud: 123-49-42E, altitud: 91 m

Observació

L'informe es va fer fa 16 minuts, a les 10:30 UTC
Vent 6 kt del Sud/Sud-Oest
Temperatura 21°C
Humitat 26%
Pressió 1011 hPa
Visibilitat 10 km o més

METAR: YCIN 161030Z AUTO 21006KT 9999 // NCD 21/01 Q1011 RF00.0/000.0

Hora: 18:46 (10:46 UTC)

Pronòstic

L'informe es va fer fa 4 hores i 18 minuts, a les 06:28 UTC
Pronòstic vàlid del 16 a les 08 UTC al 16 a les 20 UTC
Vent 5 kt del Sud/Sud-Est
Visibilitat 10 km o més
sense núvols per sota de 1500 mi sense presència de cumulonimbus.

TAF: YCIN 160628Z 1608/1620 16005KT CAVOK

Observacions i pronòstics meteorològics de més de 4000 aeroports (METAR i TAF).

Les estacions disponibles són els punts grocs i vermells al mapa.

Posi el ratolí al punt desitjat per veure el nom de l'estació.

Feu clic per veure les observacions i els pronòstics meteorològics.

Per canviar el mapa: feu clic els botons verds amb una creu de color negre per apropar; al botó verd amb un guió per allunyar la imatge; o en les fletxes verdes per a mapes adjacents.


METAR-TAF: